sensor_id;sensor_type;location;lat;lon;timestamp;P1;durP1;ratioP1;P2;durP2;ratioP2
26502;SDS011;14177;51.520;6.764;2022-09-29T00:00:51;13.95;;;7.80;;
26502;SDS011;14177;51.520;6.764;2022-09-29T00:03:19;18.90;;;9.57;;
26502;SDS011;14177;51.520;6.764;2022-09-29T00:05:49;16.60;;;9.75;;
26502;SDS011;14177;51.520;6.764;2022-09-29T00:08:18;15.38;;;8.60;;
26502;SDS011;14177;51.520;6.764;2022-09-29T00:10:47;16.95;;;8.68;;
26502;SDS011;14177;51.520;6.764;2022-09-29T00:13:15;13.93;;;8.32;;
26502;SDS011;14177;51.520;6.764;2022-09-29T00:15:43;13.45;;;8.70;;
26502;SDS011;14177;51.520;6.764;2022-09-29T00:18:24;12.70;;;8.23;;
26502;SDS011;14177;51.520;6.764;2022-09-29T00:21:34;14.18;;;8.25;;
26502;SDS011;14177;51.520;6.764;2022-09-29T00:23:47;14.90;;;7.80;;
26502;SDS011;14177;51.520;6.764;2022-09-29T00:26:16;15.57;;;8.00;;
26502;SDS011;14177;51.520;6.764;2022-09-29T00:28:50;13.15;;;7.43;;
26502;SDS011;14177;51.520;6.764;2022-09-29T00:31:27;10.93;;;7.60;;
26502;SDS011;14177;51.520;6.764;2022-09-29T00:33:56;10.38;;;7.25;;
26502;SDS011;14177;51.520;6.764;2022-09-29T00:36:24;11.00;;;6.82;;
26502;SDS011;14177;51.520;6.764;2022-09-29T00:38:55;11.65;;;7.50;;
26502;SDS011;14177;51.520;6.764;2022-09-29T00:41:25;10.52;;;7.50;;
26502;SDS011;14177;51.520;6.764;2022-09-29T00:43:58;11.68;;;7.53;;
26502;SDS011;14177;51.520;6.764;2022-09-29T00:49:25;10.93;;;7.50;;
26502;SDS011;14177;51.520;6.764;2022-09-29T00:52:20;13.87;;;7.37;;
26502;SDS011;14177;51.520;6.764;2022-09-29T00:54:55;11.82;;;6.47;;
26502;SDS011;14177;51.520;6.764;2022-09-29T00:58:06;10.75;;;6.95;;
26502;SDS011;14177;51.520;6.764;2022-09-29T01:00:43;12.15;;;6.90;;
26502;SDS011;14177;51.520;6.764;2022-09-29T01:03:12;9.00;;;5.85;;
26502;SDS011;14177;51.520;6.764;2022-09-29T01:05:46;9.75;;;7.00;;
26502;SDS011;14177;51.520;6.764;2022-09-29T01:08:23;9.27;;;6.00;;
26502;SDS011;14177;51.520;6.764;2022-09-29T01:11:13;10.85;;;7.00;;
26502;SDS011;14177;51.520;6.764;2022-09-29T01:13:41;10.05;;;6.30;;
26502;SDS011;14177;51.520;6.764;2022-09-29T01:16:10;8.27;;;6.20;;
26502;SDS011;14177;51.520;6.764;2022-09-29T01:18:37;8.82;;;6.88;;
26502;SDS011;14177;51.520;6.764;2022-09-29T01:30:03;9.93;;;6.78;;
26502;SDS011;14177;51.520;6.764;2022-09-29T01:35:35;11.00;;;6.82;;
26502;SDS011;14177;51.520;6.764;2022-09-29T01:41:27;9.80;;;6.50;;
26502;SDS011;14177;51.520;6.764;2022-09-29T01:44:36;9.90;;;6.55;;
26502;SDS011;14177;51.520;6.764;2022-09-29T01:47:30;10.38;;;6.38;;
26502;SDS011;14177;51.520;6.764;2022-09-29T01:50:07;8.60;;;5.95;;
26502;SDS011;14177;51.520;6.764;2022-09-29T01:52:43;7.25;;;5.72;;
26502;SDS011;14177;51.520;6.764;2022-09-29T01:55:16;10.32;;;6.38;;
26502;SDS011;14177;51.520;6.764;2022-09-29T02:00:20;10.82;;;6.47;;
26502;SDS011;14177;51.520;6.764;2022-09-29T02:05:32;11.00;;;5.93;;
26502;SDS011;14177;51.520;6.764;2022-09-29T02:08:19;8.35;;;6.75;;
26502;SDS011;14177;51.520;6.764;2022-09-29T02:10:53;8.60;;;5.88;;
26502;SDS011;14177;51.520;6.764;2022-09-29T02:13:29;10.52;;;6.13;;
26502;SDS011;14177;51.520;6.764;2022-09-29T02:16:03;7.45;;;5.57;;
26502;SDS011;14177;51.520;6.764;2022-09-29T02:18:39;12.05;;;6.43;;
26502;SDS011;14177;51.520;6.764;2022-09-29T02:21:23;8.43;;;5.80;;
26502;SDS011;14177;51.520;6.764;2022-09-29T02:23:52;13.30;;;6.32;;
26502;SDS011;14177;51.520;6.764;2022-09-29T02:26:20;7.63;;;5.78;;
26502;SDS011;14177;51.520;6.764;2022-09-29T02:28:50;9.15;;;5.63;;
26502;SDS011;14177;51.520;6.764;2022-09-29T02:31:18;8.73;;;6.10;;
26502;SDS011;14177;51.520;6.764;2022-09-29T02:33:45;12.80;;;5.85;;
26502;SDS011;14177;51.520;6.764;2022-09-29T02:36:17;7.60;;;5.45;;
26502;SDS011;14177;51.520;6.764;2022-09-29T02:44:57;9.43;;;5.90;;
26502;SDS011;14177;51.520;6.764;2022-09-29T02:47:45;7.80;;;5.25;;
26502;SDS011;14177;51.520;6.764;2022-09-29T02:51:38;8.02;;;5.38;;
26502;SDS011;14177;51.520;6.764;2022-09-29T02:56:56;8.82;;;5.88;;
26502;SDS011;14177;51.520;6.764;2022-09-29T03:02:37;8.10;;;5.63;;
26502;SDS011;14177;51.520;6.764;2022-09-29T03:05:09;8.18;;;5.40;;
26502;SDS011;14177;51.520;6.764;2022-09-29T03:07:43;5.90;;;4.50;;
26502;SDS011;14177;51.520;6.764;2022-09-29T03:10:13;10.70;;;5.90;;
26502;SDS011;14177;51.520;6.764;2022-09-29T03:12:45;7.90;;;5.70;;
26502;SDS011;14177;51.520;6.764;2022-09-29T03:15:14;9.32;;;5.80;;
26502;SDS011;14177;51.520;6.764;2022-09-29T03:17:44;8.52;;;5.75;;
26502;SDS011;14177;51.520;6.764;2022-09-29T03:20:13;7.38;;;5.25;;
26502;SDS011;14177;51.520;6.764;2022-09-29T03:22:40;6.78;;;5.50;;
26502;SDS011;14177;51.520;6.764;2022-09-29T03:25:07;7.70;;;5.63;;
26502;SDS011;14177;51.520;6.764;2022-09-29T03:27:34;11.00;;;6.15;;
26502;SDS011;14177;51.520;6.764;2022-09-29T03:30:03;8.48;;;5.07;;
26502;SDS011;14177;51.520;6.764;2022-09-29T03:32:31;9.32;;;5.47;;
26502;SDS011;14177;51.520;6.764;2022-09-29T03:34:58;8.90;;;6.38;;
26502;SDS011;14177;51.520;6.764;2022-09-29T03:37:25;7.57;;;5.47;;
26502;SDS011;14177;51.520;6.764;2022-09-29T03:39:52;10.95;;;5.60;;
26502;SDS011;14177;51.520;6.764;2022-09-29T03:42:19;7.00;;;5.15;;
26502;SDS011;14177;51.520;6.764;2022-09-29T03:44:49;9.93;;;5.88;;
26502;SDS011;14177;51.520;6.764;2022-09-29T03:47:16;7.95;;;5.20;;
26502;SDS011;14177;51.520;6.764;2022-09-29T03:49:43;10.05;;;5.82;;
26502;SDS011;14177;51.520;6.764;2022-09-29T03:52:09;8.82;;;5.32;;
26502;SDS011;14177;51.520;6.764;2022-09-29T03:54:37;10.18;;;5.82;;
26502;SDS011;14177;51.520;6.764;2022-09-29T03:57:04;9.98;;;5.88;;
26502;SDS011;14177;51.520;6.764;2022-09-29T03:59:31;11.32;;;6.18;;
26502;SDS011;14177;51.520;6.764;2022-09-29T04:01:58;9.02;;;5.75;;
26502;SDS011;14177;51.520;6.764;2022-09-29T04:04:25;9.32;;;5.70;;
26502;SDS011;14177;51.520;6.764;2022-09-29T04:06:52;7.80;;;5.20;;
26502;SDS011;14177;51.520;6.764;2022-09-29T04:09:19;9.25;;;6.03;;
26502;SDS011;14177;51.520;6.764;2022-09-29T04:11:46;7.97;;;6.10;;
26502;SDS011;14177;51.520;6.764;2022-09-29T04:14:12;8.32;;;5.75;;
26502;SDS011;14177;51.520;6.764;2022-09-29T04:16:39;8.57;;;6.22;;
26502;SDS011;14177;51.520;6.764;2022-09-29T04:19:06;9.65;;;6.00;;
26502;SDS011;14177;51.520;6.764;2022-09-29T04:21:33;8.13;;;5.32;;
26502;SDS011;14177;51.520;6.764;2022-09-29T04:24:00;8.90;;;6.03;;
26502;SDS011;14177;51.520;6.764;2022-09-29T04:26:27;7.95;;;5.78;;
26502;SDS011;14177;51.520;6.764;2022-09-29T04:28:54;7.55;;;5.38;;
26502;SDS011;14177;51.520;6.764;2022-09-29T04:31:21;8.25;;;5.38;;
26502;SDS011;14177;51.520;6.764;2022-09-29T04:33:48;13.25;;;6.70;;
26502;SDS011;14177;51.520;6.764;2022-09-29T04:36:15;9.15;;;6.05;;
26502;SDS011;14177;51.520;6.764;2022-09-29T04:38:42;10.20;;;6.30;;
26502;SDS011;14177;51.520;6.764;2022-09-29T04:41:09;7.53;;;5.22;;
26502;SDS011;14177;51.520;6.764;2022-09-29T04:43:35;6.85;;;5.10;;
26502;SDS011;14177;51.520;6.764;2022-09-29T04:46:06;8.43;;;5.80;;
26502;SDS011;14177;51.520;6.764;2022-09-29T04:48:34;9.38;;;6.00;;
26502;SDS011;14177;51.520;6.764;2022-09-29T04:51:02;11.40;;;5.15;;
26502;SDS011;14177;51.520;6.764;2022-09-29T04:53:30;7.07;;;5.13;;
26502;SDS011;14177;51.520;6.764;2022-09-29T04:55:57;8.38;;;6.30;;
26502;SDS011;14177;51.520;6.764;2022-09-29T04:58:24;8.05;;;5.53;;
26502;SDS011;14177;51.520;6.764;2022-09-29T05:00:51;7.38;;;5.50;;
26502;SDS011;14177;51.520;6.764;2022-09-29T05:03:18;11.50;;;7.55;;
26502;SDS011;14177;51.520;6.764;2022-09-29T05:05:45;10.40;;;6.60;;
26502;SDS011;14177;51.520;6.764;2022-09-29T05:08:12;11.55;;;6.70;;
26502;SDS011;14177;51.520;6.764;2022-09-29T05:10:39;8.10;;;6.05;;
26502;SDS011;14177;51.520;6.764;2022-09-29T05:13:08;8.13;;;5.55;;
26502;SDS011;14177;51.520;6.764;2022-09-29T05:15:35;11.63;;;7.68;;
26502;SDS011;14177;51.520;6.764;2022-09-29T05:18:02;13.38;;;7.70;;
26502;SDS011;14177;51.520;6.764;2022-09-29T05:20:29;11.88;;;7.57;;
26502;SDS011;14177;51.520;6.764;2022-09-29T05:23:07;10.38;;;6.57;;
26502;SDS011;14177;51.520;6.764;2022-09-29T05:25:35;8.98;;;6.78;;
26502;SDS011;14177;51.520;6.764;2022-09-29T05:28:03;13.23;;;7.47;;
26502;SDS011;14177;51.520;6.764;2022-09-29T05:30:30;17.25;;;9.25;;
26502;SDS011;14177;51.520;6.764;2022-09-29T05:32:57;20.38;;;11.60;;
26502;SDS011;14177;51.520;6.764;2022-09-29T05:35:24;13.15;;;8.07;;
26502;SDS011;14177;51.520;6.764;2022-09-29T05:37:51;9.82;;;7.43;;
26502;SDS011;14177;51.520;6.764;2022-09-29T05:40:18;10.82;;;7.43;;
26502;SDS011;14177;51.520;6.764;2022-09-29T05:42:49;11.98;;;7.30;;
26502;SDS011;14177;51.520;6.764;2022-09-29T05:45:17;9.55;;;7.05;;
26502;SDS011;14177;51.520;6.764;2022-09-29T05:47:44;11.77;;;7.40;;
26502;SDS011;14177;51.520;6.764;2022-09-29T05:50:11;9.85;;;7.13;;
26502;SDS011;14177;51.520;6.764;2022-09-29T05:52:39;9.68;;;6.85;;
26502;SDS011;14177;51.520;6.764;2022-09-29T05:55:06;9.32;;;6.65;;
26502;SDS011;14177;51.520;6.764;2022-09-29T05:57:38;8.13;;;6.18;;
26502;SDS011;14177;51.520;6.764;2022-09-29T06:00:05;8.93;;;6.65;;
26502;SDS011;14177;51.520;6.764;2022-09-29T06:02:39;11.00;;;6.97;;
26502;SDS011;14177;51.520;6.764;2022-09-29T06:05:06;14.52;;;7.13;;
26502;SDS011;14177;51.520;6.764;2022-09-29T06:07:33;11.52;;;6.90;;
26502;SDS011;14177;51.520;6.764;2022-09-29T06:10:03;12.10;;;7.50;;
26502;SDS011;14177;51.520;6.764;2022-09-29T06:12:34;11.38;;;7.07;;
26502;SDS011;14177;51.520;6.764;2022-09-29T06:15:02;11.80;;;6.72;;
26502;SDS011;14177;51.520;6.764;2022-09-29T06:17:30;9.85;;;6.85;;
26502;SDS011;14177;51.520;6.764;2022-09-29T06:19:59;10.55;;;7.20;;
26502;SDS011;14177;51.520;6.764;2022-09-29T06:22:26;12.00;;;7.72;;
26502;SDS011;14177;51.520;6.764;2022-09-29T06:24:54;12.93;;;7.85;;
26502;SDS011;14177;51.520;6.764;2022-09-29T06:27:21;11.60;;;7.75;;
26502;SDS011;14177;51.520;6.764;2022-09-29T06:29:48;12.73;;;7.47;;
26502;SDS011;14177;51.520;6.764;2022-09-29T06:32:15;13.98;;;7.88;;
26502;SDS011;14177;51.520;6.764;2022-09-29T06:34:43;14.00;;;7.57;;
26502;SDS011;14177;51.520;6.764;2022-09-29T06:40:05;9.32;;;6.60;;
26502;SDS011;14177;51.520;6.764;2022-09-29T06:42:36;10.93;;;7.15;;
26502;SDS011;14177;51.520;6.764;2022-09-29T06:45:04;10.75;;;7.30;;
26502;SDS011;14177;51.520;6.764;2022-09-29T06:47:31;14.68;;;7.55;;
26502;SDS011;14177;51.520;6.764;2022-09-29T06:49:58;14.07;;;7.90;;
26502;SDS011;14177;51.520;6.764;2022-09-29T06:52:37;10.57;;;6.57;;
26502;SDS011;14177;51.520;6.764;2022-09-29T06:55:06;9.77;;;6.68;;
26502;SDS011;14177;51.520;6.764;2022-09-29T06:57:33;9.10;;;7.03;;
26502;SDS011;14177;51.520;6.764;2022-09-29T07:00:02;11.70;;;7.45;;
26502;SDS011;14177;51.520;6.764;2022-09-29T07:02:30;11.23;;;7.03;;
26502;SDS011;14177;51.520;6.764;2022-09-29T07:04:57;11.48;;;6.93;;
26502;SDS011;14177;51.520;6.764;2022-09-29T07:07:24;9.27;;;6.72;;
26502;SDS011;14177;51.520;6.764;2022-09-29T07:09:51;11.00;;;7.53;;
26502;SDS011;14177;51.520;6.764;2022-09-29T07:12:18;9.95;;;6.63;;
26502;SDS011;14177;51.520;6.764;2022-09-29T07:14:45;13.95;;;7.63;;
26502;SDS011;14177;51.520;6.764;2022-09-29T07:17:12;10.75;;;6.72;;
26502;SDS011;14177;51.520;6.764;2022-09-29T07:19:41;10.27;;;6.95;;
26502;SDS011;14177;51.520;6.764;2022-09-29T07:22:08;10.70;;;6.15;;
26502;SDS011;14177;51.520;6.764;2022-09-29T07:24:35;10.77;;;6.68;;
26502;SDS011;14177;51.520;6.764;2022-09-29T07:27:02;9.32;;;6.80;;
26502;SDS011;14177;51.520;6.764;2022-09-29T07:29:30;13.45;;;7.15;;
26502;SDS011;14177;51.520;6.764;2022-09-29T07:31:58;13.05;;;7.03;;
26502;SDS011;14177;51.520;6.764;2022-09-29T07:34:25;12.38;;;7.03;;
26502;SDS011;14177;51.520;6.764;2022-09-29T07:36:57;10.45;;;6.63;;
26502;SDS011;14177;51.520;6.764;2022-09-29T07:39:24;9.65;;;6.50;;
26502;SDS011;14177;51.520;6.764;2022-09-29T07:41:51;15.13;;;6.80;;
26502;SDS011;14177;51.520;6.764;2022-09-29T07:44:20;13.80;;;7.13;;
26502;SDS011;14177;51.520;6.764;2022-09-29T07:46:47;10.02;;;6.40;;
26502;SDS011;14177;51.520;6.764;2022-09-29T07:49:15;11.95;;;7.40;;
26502;SDS011;14177;51.520;6.764;2022-09-29T07:51:45;9.50;;;7.03;;
26502;SDS011;14177;51.520;6.764;2022-09-29T07:54:13;11.68;;;6.80;;
26502;SDS011;14177;51.520;6.764;2022-09-29T07:56:40;15.00;;;7.03;;
26502;SDS011;14177;51.520;6.764;2022-09-29T07:59:09;9.90;;;6.45;;
26502;SDS011;14177;51.520;6.764;2022-09-29T08:01:36;12.18;;;6.68;;
26502;SDS011;14177;51.520;6.764;2022-09-29T08:04:04;10.80;;;6.28;;
26502;SDS011;14177;51.520;6.764;2022-09-29T08:06:31;12.23;;;7.47;;
26502;SDS011;14177;51.520;6.764;2022-09-29T08:08:59;17.00;;;7.68;;
26502;SDS011;14177;51.520;6.764;2022-09-29T08:11:31;9.05;;;6.13;;
26502;SDS011;14177;51.520;6.764;2022-09-29T08:14:02;8.75;;;5.82;;
26502;SDS011;14177;51.520;6.764;2022-09-29T08:16:29;9.70;;;6.93;;
26502;SDS011;14177;51.520;6.764;2022-09-29T08:18:57;7.88;;;6.00;;
26502;SDS011;14177;51.520;6.764;2022-09-29T08:21:25;9.77;;;6.43;;
26502;SDS011;14177;51.520;6.764;2022-09-29T08:23:53;9.80;;;6.80;;
26502;SDS011;14177;51.520;6.764;2022-09-29T08:26:20;12.48;;;6.57;;
26502;SDS011;14177;51.520;6.764;2022-09-29T08:29:02;9.50;;;6.07;;
26502;SDS011;14177;51.520;6.764;2022-09-29T08:31:34;15.05;;;6.80;;
26502;SDS011;14177;51.520;6.764;2022-09-29T08:34:05;12.30;;;6.63;;
26502;SDS011;14177;51.520;6.764;2022-09-29T08:36:33;13.90;;;6.60;;
26502;SDS011;14177;51.520;6.764;2022-09-29T08:39:01;11.05;;;6.88;;
26502;SDS011;14177;51.520;6.764;2022-09-29T08:47:31;14.95;;;6.43;;
26502;SDS011;14177;51.520;6.764;2022-09-29T08:53:34;12.65;;;6.70;;
26502;SDS011;14177;51.520;6.764;2022-09-29T08:56:26;8.57;;;5.85;;
26502;SDS011;14177;51.520;6.764;2022-09-29T08:58:53;15.77;;;6.40;;
26502;SDS011;14177;51.520;6.764;2022-09-29T09:04:14;12.60;;;7.05;;
26502;SDS011;14177;51.520;6.764;2022-09-29T09:07:14;9.25;;;6.65;;
26502;SDS011;14177;51.520;6.764;2022-09-29T09:10:23;14.23;;;7.47;;
26502;SDS011;14177;51.520;6.764;2022-09-29T09:19:33;16.52;;;8.35;;
26502;SDS011;14177;51.520;6.764;2022-09-29T09:22:21;16.50;;;7.82;;
26502;SDS011;14177;51.520;6.764;2022-09-29T09:25:03;14.55;;;7.97;;
26502;SDS011;14177;51.520;6.764;2022-09-29T09:27:42;16.27;;;7.68;;
26502;SDS011;14177;51.520;6.764;2022-09-29T09:30:15;15.13;;;8.05;;
26502;SDS011;14177;51.520;6.764;2022-09-29T09:32:48;16.90;;;7.47;;
26502;SDS011;14177;51.520;6.764;2022-09-29T09:38:26;12.98;;;6.32;;
26502;SDS011;14177;51.520;6.764;2022-09-29T09:41:09;14.30;;;6.35;;
26502;SDS011;14177;51.520;6.764;2022-09-29T09:43:41;11.23;;;6.03;;
26502;SDS011;14177;51.520;6.764;2022-09-29T09:46:17;14.23;;;6.47;;
26502;SDS011;14177;51.520;6.764;2022-09-29T09:55:12;10.52;;;6.22;;
26502;SDS011;14177;51.520;6.764;2022-09-29T09:57:54;14.27;;;6.38;;
26502;SDS011;14177;51.520;6.764;2022-09-29T10:00:37;11.27;;;6.05;;
26502;SDS011;14177;51.520;6.764;2022-09-29T10:03:06;13.20;;;5.93;;
26502;SDS011;14177;51.520;6.764;2022-09-29T10:05:38;19.30;;;6.07;;
26502;SDS011;14177;51.520;6.764;2022-09-29T10:08:22;17.15;;;6.20;;
26502;SDS011;14177;51.520;6.764;2022-09-29T10:10:52;15.48;;;5.60;;
26502;SDS011;14177;51.520;6.764;2022-09-29T10:13:26;11.85;;;5.50;;
26502;SDS011;14177;51.520;6.764;2022-09-29T10:16:00;16.98;;;7.30;;
26502;SDS011;14177;51.520;6.764;2022-09-29T10:18:50;10.48;;;5.43;;
26502;SDS011;14177;51.520;6.764;2022-09-29T10:23:56;11.43;;;5.28;;
26502;SDS011;14177;51.520;6.764;2022-09-29T10:26:27;9.63;;;4.78;;
26502;SDS011;14177;51.520;6.764;2022-09-29T10:34:41;8.57;;;4.80;;
26502;SDS011;14177;51.520;6.764;2022-09-29T10:39:49;8.55;;;4.00;;
26502;SDS011;14177;51.520;6.764;2022-09-29T10:42:42;7.93;;;3.97;;
26502;SDS011;14177;51.520;6.764;2022-09-29T10:45:14;6.47;;;3.28;;
26502;SDS011;14177;51.520;6.764;2022-09-29T10:53:04;5.95;;;3.20;;
26502;SDS011;14177;51.520;6.764;2022-09-29T10:55:49;6.05;;;3.40;;
26502;SDS011;14177;51.520;6.764;2022-09-29T10:58:54;4.95;;;3.20;;
26502;SDS011;14177;51.520;6.764;2022-09-29T11:02:15;6.18;;;3.20;;
26502;SDS011;14177;51.520;6.764;2022-09-29T11:04:46;5.65;;;3.40;;
26502;SDS011;14177;51.520;6.764;2022-09-29T11:07:14;5.82;;;3.50;;
26502;SDS011;14177;51.520;6.764;2022-09-29T11:09:42;6.55;;;3.40;;
26502;SDS011;14177;51.520;6.764;2022-09-29T11:14:57;7.10;;;3.33;;
26502;SDS011;14177;51.520;6.764;2022-09-29T11:17:30;7.93;;;3.63;;
26502;SDS011;14177;51.520;6.764;2022-09-29T11:20:04;5.22;;;3.22;;
26502;SDS011;14177;51.520;6.764;2022-09-29T11:22:46;9.20;;;3.22;;
26502;SDS011;14177;51.520;6.764;2022-09-29T11:25:47;6.63;;;3.08;;
26502;SDS011;14177;51.520;6.764;2022-09-29T11:31:38;9.50;;;4.45;;
26502;SDS011;14177;51.520;6.764;2022-09-29T11:40:25;6.78;;;3.85;;
26502;SDS011;14177;51.520;6.764;2022-09-29T11:46:45;4.85;;;3.47;;
26502;SDS011;14177;51.520;6.764;2022-09-29T11:49:44;5.75;;;3.50;;
26502;SDS011;14177;51.520;6.764;2022-09-29T11:52:34;4.63;;;2.90;;
26502;SDS011;14177;51.520;6.764;2022-09-29T12:10:11;4.47;;;2.75;;
26502;SDS011;14177;51.520;6.764;2022-09-29T12:15:52;6.90;;;2.40;;
26502;SDS011;14177;51.520;6.764;2022-09-29T12:21:10;3.38;;;2.38;;
26502;SDS011;14177;51.520;6.764;2022-09-29T12:23:43;4.80;;;2.38;;
26502;SDS011;14177;51.520;6.764;2022-09-29T12:31:25;4.45;;;1.83;;
26502;SDS011;14177;51.520;6.764;2022-09-29T12:34:09;3.13;;;1.85;;
26502;SDS011;14177;51.520;6.764;2022-09-29T12:42:12;2.42;;;1.83;;
26502;SDS011;14177;51.520;6.764;2022-09-29T12:45:13;6.82;;;2.28;;
26502;SDS011;14177;51.520;6.764;2022-09-29T12:50:31;5.38;;;2.10;;
26502;SDS011;14177;51.520;6.764;2022-09-29T12:53:26;3.13;;;1.52;;
26502;SDS011;14177;51.520;6.764;2022-09-29T12:56:09;6.22;;;1.80;;
26502;SDS011;14177;51.520;6.764;2022-09-29T12:59:01;2.85;;;1.60;;
26502;SDS011;14177;51.520;6.764;2022-09-29T13:01:44;5.03;;;2.30;;
26502;SDS011;14177;51.520;6.764;2022-09-29T13:10:04;2.25;;;1.23;;
26502;SDS011;14177;51.520;6.764;2022-09-29T13:13:11;4.78;;;1.33;;
26502;SDS011;14177;51.520;6.764;2022-09-29T13:16:15;2.42;;;1.15;;
26502;SDS011;14177;51.520;6.764;2022-09-29T13:28:22;1.88;;;0.98;;
26502;SDS011;14177;51.520;6.764;2022-09-29T13:31:03;3.75;;;1.60;;
26502;SDS011;14177;51.520;6.764;2022-09-29T13:33:37;3.45;;;1.65;;
26502;SDS011;14177;51.520;6.764;2022-09-29T13:36:05;3.13;;;1.35;;
26502;SDS011;14177;51.520;6.764;2022-09-29T13:38:37;3.17;;;1.45;;
26502;SDS011;14177;51.520;6.764;2022-09-29T13:41:10;2.50;;;1.05;;
26502;SDS011;14177;51.520;6.764;2022-09-29T13:44:19;2.03;;;0.80;;
26502;SDS011;14177;51.520;6.764;2022-09-29T13:46:50;3.25;;;1.02;;
26502;SDS011;14177;51.520;6.764;2022-09-29T13:51:59;4.90;;;1.70;;
26502;SDS011;14177;51.520;6.764;2022-09-29T13:55:05;3.22;;;1.27;;
26502;SDS011;14177;51.520;6.764;2022-09-29T14:00:53;3.13;;;1.30;;
26502;SDS011;14177;51.520;6.764;2022-09-29T14:06:17;4.78;;;1.40;;
26502;SDS011;14177;51.520;6.764;2022-09-29T14:09:07;5.03;;;1.70;;
26502;SDS011;14177;51.520;6.764;2022-09-29T14:11:50;3.95;;;1.23;;
26502;SDS011;14177;51.520;6.764;2022-09-29T14:14:24;2.75;;;1.05;;
26502;SDS011;14177;51.520;6.764;2022-09-29T14:20:00;2.10;;;1.10;;
26502;SDS011;14177;51.520;6.764;2022-09-29T14:23:06;1.65;;;0.88;;
26502;SDS011;14177;51.520;6.764;2022-09-29T14:28:06;4.80;;;1.73;;
26502;SDS011;14177;51.520;6.764;2022-09-29T14:30:42;1.85;;;1.00;;
26502;SDS011;14177;51.520;6.764;2022-09-29T14:33:29;1.73;;;1.00;;
26502;SDS011;14177;51.520;6.764;2022-09-29T14:36:13;3.85;;;0.75;;
26502;SDS011;14177;51.520;6.764;2022-09-29T14:38:46;3.03;;;1.00;;
26502;SDS011;14177;51.520;6.764;2022-09-29T14:41:44;3.22;;;1.20;;
26502;SDS011;14177;51.520;6.764;2022-09-29T15:02:44;4.70;;;2.47;;
26502;SDS011;14177;51.520;6.764;2022-09-29T15:05:48;3.63;;;1.15;;
26502;SDS011;14177;51.520;6.764;2022-09-29T15:08:59;3.17;;;1.05;;
26502;SDS011;14177;51.520;6.764;2022-09-29T15:11:41;4.65;;;1.10;;
26502;SDS011;14177;51.520;6.764;2022-09-29T15:14:30;2.08;;;1.00;;
26502;SDS011;14177;51.520;6.764;2022-09-29T15:20:32;3.80;;;0.88;;
26502;SDS011;14177;51.520;6.764;2022-09-29T15:26:45;2.33;;;0.80;;
26502;SDS011;14177;51.520;6.764;2022-09-29T15:29:13;2.05;;;0.95;;
26502;SDS011;14177;51.520;6.764;2022-09-29T15:31:45;1.77;;;0.70;;
26502;SDS011;14177;51.520;6.764;2022-09-29T15:34:17;2.22;;;0.93;;
26502;SDS011;14177;51.520;6.764;2022-09-29T15:36:49;1.40;;;0.80;;
26502;SDS011;14177;51.520;6.764;2022-09-29T15:41:59;2.38;;;0.77;;
26502;SDS011;14177;51.520;6.764;2022-09-29T15:44:28;2.80;;;1.00;;
26502;SDS011;14177;51.520;6.764;2022-09-29T15:46:59;1.42;;;0.90;;
26502;SDS011;14177;51.520;6.764;2022-09-29T15:49:27;1.73;;;0.73;;
26502;SDS011;14177;51.520;6.764;2022-09-29T15:51:59;2.03;;;0.75;;
26502;SDS011;14177;51.520;6.764;2022-09-29T15:54:40;1.45;;;0.88;;
26502;SDS011;14177;51.520;6.764;2022-09-29T15:57:29;8.20;;;2.95;;
26502;SDS011;14177;51.520;6.764;2022-09-29T16:02:47;3.60;;;1.10;;
26502;SDS011;14177;51.520;6.764;2022-09-29T16:05:35;4.75;;;1.20;;
26502;SDS011;14177;51.520;6.764;2022-09-29T16:08:13;3.13;;;1.10;;
26502;SDS011;14177;51.520;6.764;2022-09-29T16:10:51;6.15;;;1.42;;
26502;SDS011;14177;51.520;6.764;2022-09-29T16:13:53;3.42;;;1.20;;
26502;SDS011;14177;51.520;6.764;2022-09-29T16:16:29;3.42;;;1.25;;
26502;SDS011;14177;51.520;6.764;2022-09-29T16:19:02;2.60;;;1.20;;
26502;SDS011;14177;51.520;6.764;2022-09-29T16:21:38;2.95;;;1.80;;
26502;SDS011;14177;51.520;6.764;2022-09-29T16:24:12;2.78;;;2.00;;
26502;SDS011;14177;51.520;6.764;2022-09-29T16:26:51;6.18;;;1.80;;
26502;SDS011;14177;51.520;6.764;2022-09-29T16:31:50;5.05;;;2.00;;
26502;SDS011;14177;51.520;6.764;2022-09-29T16:39:21;5.60;;;3.90;;
26502;SDS011;14177;51.520;6.764;2022-09-29T16:41:59;4.80;;;2.50;;
26502;SDS011;14177;51.520;6.764;2022-09-29T16:44:32;3.42;;;1.95;;
26502;SDS011;14177;51.520;6.764;2022-09-29T16:49:36;3.60;;;1.98;;
26502;SDS011;14177;51.520;6.764;2022-09-29T16:52:19;3.90;;;1.75;;
26502;SDS011;14177;51.520;6.764;2022-09-29T16:54:52;5.03;;;1.60;;
26502;SDS011;14177;51.520;6.764;2022-09-29T16:57:33;5.18;;;2.15;;
26502;SDS011;14177;51.520;6.764;2022-09-29T17:00:01;2.90;;;1.90;;
26502;SDS011;14177;51.520;6.764;2022-09-29T17:02:37;7.53;;;2.30;;
26502;SDS011;14177;51.520;6.764;2022-09-29T17:05:04;4.35;;;1.63;;
26502;SDS011;14177;51.520;6.764;2022-09-29T17:07:31;3.63;;;1.75;;
26502;SDS011;14177;51.520;6.764;2022-09-29T17:10:09;3.13;;;1.88;;
26502;SDS011;14177;51.520;6.764;2022-09-29T17:15:20;3.15;;;1.80;;
26502;SDS011;14177;51.520;6.764;2022-09-29T17:17:48;4.45;;;2.03;;
26502;SDS011;14177;51.520;6.764;2022-09-29T17:20:18;2.97;;;1.65;;
26502;SDS011;14177;51.520;6.764;2022-09-29T17:22:55;4.63;;;2.00;;
26502;SDS011;14177;51.520;6.764;2022-09-29T17:25:25;3.28;;;1.88;;
26502;SDS011;14177;51.520;6.764;2022-09-29T17:27:52;3.75;;;1.73;;
26502;SDS011;14177;51.520;6.764;2022-09-29T17:30:38;12.88;;;2.42;;
26502;SDS011;14177;51.520;6.764;2022-09-29T17:33:10;5.22;;;2.20;;
26502;SDS011;14177;51.520;6.764;2022-09-29T17:35:43;4.47;;;2.08;;
26502;SDS011;14177;51.520;6.764;2022-09-29T17:38:19;8.40;;;2.13;;
26502;SDS011;14177;51.520;6.764;2022-09-29T17:40:51;9.15;;;2.53;;
26502;SDS011;14177;51.520;6.764;2022-09-29T17:43:29;4.15;;;2.30;;
26502;SDS011;14177;51.520;6.764;2022-09-29T17:45:58;7.18;;;2.40;;
26502;SDS011;14177;51.520;6.764;2022-09-29T17:48:27;6.18;;;2.78;;
26502;SDS011;14177;51.520;6.764;2022-09-29T17:50:56;13.55;;;2.53;;
26502;SDS011;14177;51.520;6.764;2022-09-29T17:53:24;6.72;;;2.67;;
26502;SDS011;14177;51.520;6.764;2022-09-29T17:55:52;5.22;;;2.90;;
26502;SDS011;14177;51.520;6.764;2022-09-29T17:58:22;12.20;;;4.63;;
26502;SDS011;14177;51.520;6.764;2022-09-29T18:00:50;9.20;;;5.22;;
26502;SDS011;14177;51.520;6.764;2022-09-29T18:03:19;15.63;;;9.98;;
26502;SDS011;14177;51.520;6.764;2022-09-29T18:05:48;21.27;;;13.13;;
26502;SDS011;14177;51.520;6.764;2022-09-29T18:08:22;25.90;;;15.00;;
26502;SDS011;14177;51.520;6.764;2022-09-29T18:13:21;26.80;;;14.88;;
26502;SDS011;14177;51.520;6.764;2022-09-29T18:15:52;25.75;;;13.02;;
26502;SDS011;14177;51.520;6.764;2022-09-29T18:18:21;16.90;;;10.90;;
26502;SDS011;14177;51.520;6.764;2022-09-29T18:20:48;14.93;;;9.90;;
26502;SDS011;14177;51.520;6.764;2022-09-29T18:23:16;14.48;;;8.68;;
26502;SDS011;14177;51.520;6.764;2022-09-29T18:25:46;13.85;;;8.32;;
26502;SDS011;14177;51.520;6.764;2022-09-29T18:28:16;11.30;;;7.68;;
26502;SDS011;14177;51.520;6.764;2022-09-29T18:30:52;14.40;;;6.95;;
26502;SDS011;14177;51.520;6.764;2022-09-29T18:33:37;13.60;;;7.15;;
26502;SDS011;14177;51.520;6.764;2022-09-29T18:36:04;16.95;;;7.70;;
26502;SDS011;14177;51.520;6.764;2022-09-29T18:38:31;13.30;;;7.85;;
26502;SDS011;14177;51.520;6.764;2022-09-29T18:40:58;14.88;;;8.25;;
26502;SDS011;14177;51.520;6.764;2022-09-29T18:43:26;13.90;;;8.88;;
26502;SDS011;14177;51.520;6.764;2022-09-29T18:45:54;15.48;;;9.63;;
26502;SDS011;14177;51.520;6.764;2022-09-29T18:48:22;16.05;;;9.93;;